createdAt,value
2018-11-14T00:00:50.667Z,2.70
2018-11-14T00:03:19.865Z,2.70
2018-11-14T00:05:52.130Z,2.70
2018-11-14T00:08:23.389Z,2.60
2018-11-14T00:10:52.311Z,2.60
2018-11-14T00:13:21.177Z,2.70
2018-11-14T00:15:50.095Z,2.70
2018-11-14T00:18:18.962Z,2.60
2018-11-14T00:20:47.935Z,2.60
2018-11-14T00:23:16.845Z,2.50
2018-11-14T00:25:46.489Z,2.30
2018-11-14T00:28:15.575Z,2.30
2018-11-14T00:30:44.722Z,2.20
2018-11-14T00:33:14.089Z,2.10
2018-11-14T00:35:43.378Z,2.10
2018-11-14T00:38:12.127Z,2.00
2018-11-14T00:40:40.934Z,1.90
2018-11-14T00:43:09.889Z,1.90
2018-11-14T00:45:39.293Z,1.80
2018-11-14T00:48:08.169Z,1.80
2018-11-14T00:50:37.126Z,1.60
2018-11-14T00:53:12.825Z,1.50
2018-11-14T00:55:43.850Z,1.50
2018-11-14T00:58:13.053Z,1.50
2018-11-14T01:00:42.054Z,1.60
2018-11-14T01:03:12.854Z,1.60
2018-11-14T01:05:41.796Z,1.60
2018-11-14T01:08:11.953Z,1.60
2018-11-14T01:10:43.671Z,1.60
2018-11-14T01:13:12.558Z,1.60
2018-11-14T01:15:41.619Z,1.60
2018-11-14T01:18:10.422Z,1.60
2018-11-14T01:20:39.281Z,1.50
2018-11-14T01:23:08.932Z,1.50
2018-11-14T01:25:37.961Z,1.50
2018-11-14T01:28:06.891Z,1.40
2018-11-14T01:30:35.952Z,1.40
2018-11-14T01:33:05.558Z,1.30
2018-11-14T01:35:35.558Z,1.30
2018-11-14T01:38:05.355Z,1.20
2018-11-14T01:40:35.089Z,1.20
2018-11-14T01:43:04.078Z,1.20
2018-11-14T01:45:33.177Z,1.20
2018-11-14T01:48:02.673Z,1.10
2018-11-14T01:50:32.522Z,1.20
2018-11-14T01:53:01.525Z,1.10
2018-11-14T01:55:31.661Z,1.10
2018-11-14T01:58:00.934Z,1.10
2018-11-14T02:00:30.882Z,1.10
2018-11-14T02:03:00.703Z,1.10
2018-11-14T02:05:29.622Z,1.00
2018-11-14T02:07:59.375Z,1.00
2018-11-14T02:10:28.313Z,1.00
2018-11-14T02:12:57.263Z,0.90
2018-11-14T02:15:26.889Z,0.90
2018-11-14T02:17:55.823Z,0.90
2018-11-14T02:20:28.323Z,0.90
2018-11-14T02:22:57.131Z,0.80
2018-11-14T02:25:26.014Z,0.90
2018-11-14T02:27:54.840Z,0.90
2018-11-14T02:30:24.554Z,0.80
2018-11-14T02:32:53.370Z,0.80
2018-11-14T02:35:22.328Z,0.70
2018-11-14T02:37:51.265Z,0.70
2018-11-14T02:40:21.895Z,0.60
2018-11-14T02:42:51.102Z,0.60
2018-11-14T02:45:20.072Z,0.60
2018-11-14T02:47:49.078Z,0.60
2018-11-14T02:50:19.010Z,0.60
2018-11-14T02:52:48.124Z,0.70
2018-11-14T02:55:18.774Z,0.80
2018-11-14T02:57:47.820Z,1.00
2018-11-14T03:00:21.066Z,1.10
2018-11-14T03:02:50.405Z,1.20
2018-11-14T03:05:19.885Z,1.30
2018-11-14T03:07:49.449Z,1.40
2018-11-14T03:10:21.893Z,1.50
2018-11-14T03:12:51.332Z,1.60
2018-11-14T03:15:21.499Z,1.70
2018-11-14T03:17:52.658Z,1.70
2018-11-14T03:20:22.536Z,1.70
2018-11-14T03:22:51.496Z,1.60
2018-11-14T03:25:20.654Z,1.50
2018-11-14T03:27:49.596Z,1.40
2018-11-14T03:30:19.257Z,1.30
2018-11-14T03:32:48.405Z,1.20
2018-11-14T03:35:17.165Z,1.20
2018-11-14T03:37:46.075Z,1.20
2018-11-14T03:40:16.216Z,1.20
2018-11-14T03:42:45.270Z,1.30
2018-11-14T03:45:14.865Z,1.40
2018-11-14T03:47:44.370Z,1.40
2018-11-14T03:50:13.290Z,1.30
2018-11-14T03:52:42.313Z,1.40
2018-11-14T03:55:11.363Z,1.30
2018-11-14T03:57:42.482Z,1.20
2018-11-14T04:00:14.093Z,1.20
2018-11-14T04:02:44.913Z,1.20
2018-11-14T04:05:13.806Z,1.10
2018-11-14T04:07:43.272Z,1.10
2018-11-14T04:10:14.454Z,1.10
2018-11-14T04:12:43.747Z,1.10
2018-11-14T04:15:13.619Z,1.00
2018-11-14T04:17:43.146Z,1.00
2018-11-14T04:20:14.707Z,0.90
2018-11-14T04:22:43.676Z,0.90
2018-11-14T04:25:21.130Z,0.80
2018-11-14T04:27:50.637Z,0.80
2018-11-14T04:30:22.077Z,0.80
2018-11-14T04:32:51.194Z,0.70
2018-11-14T04:35:20.853Z,0.70
2018-11-14T04:37:50.657Z,0.70
2018-11-14T04:40:22.776Z,0.80
2018-11-14T04:42:52.833Z,0.70
2018-11-14T04:45:23.790Z,0.70
2018-11-14T04:47:52.813Z,0.70
2018-11-14T04:50:24.965Z,0.70
2018-11-14T04:52:55.047Z,0.60
2018-11-14T04:55:29.121Z,0.60
2018-11-14T04:57:58.029Z,0.60
2018-11-14T05:00:27.683Z,0.60
2018-11-14T05:02:57.014Z,0.60
2018-11-14T05:05:25.921Z,0.50
2018-11-14T05:07:54.680Z,0.50
2018-11-14T05:10:24.796Z,0.40
2018-11-14T05:12:54.483Z,0.40
2018-11-14T05:15:24.995Z,0.40
2018-11-14T05:17:55.029Z,0.40
2018-11-14T05:20:35.814Z,0.30
2018-11-14T05:23:04.772Z,0.20
2018-11-14T05:25:34.214Z,0.10
2018-11-14T05:28:03.285Z,0.10
2018-11-14T05:30:32.096Z,0.10
2018-11-14T05:33:00.953Z,0.00
2018-11-14T05:35:30.170Z,0.10
2018-11-14T05:37:59.100Z,0.10
2018-11-14T05:40:27.920Z,0.10
2018-11-14T05:42:56.834Z,0.10
2018-11-14T05:45:26.922Z,0.10
2018-11-14T05:47:55.834Z,0.00
2018-11-14T05:50:25.184Z,0.00
2018-11-14T05:52:54.308Z,0.00
2018-11-14T05:55:25.223Z,0.00
2018-11-14T05:57:54.073Z,0.00
2018-11-14T06:00:31.337Z,0.00
2018-11-14T06:03:01.493Z,0.10
2018-11-14T06:05:30.410Z,0.00
2018-11-14T06:07:59.899Z,0.10
2018-11-14T06:10:28.942Z,0.20
2018-11-14T06:12:57.890Z,0.10
2018-11-14T06:15:29.016Z,0.10
2018-11-14T06:17:58.626Z,0.10
2018-11-14T06:20:27.488Z,0.10
2018-11-14T06:22:56.404Z,0.00
2018-11-14T06:25:34.205Z,0.00
2018-11-14T06:28:04.289Z,0.00
2018-11-14T06:30:33.661Z,0.00
2018-11-14T06:33:03.382Z,0.00
2018-11-14T06:35:32.288Z,0.00
2018-11-14T06:38:03.418Z,0.00
2018-11-14T06:40:32.438Z,0.00
2018-11-14T06:43:01.577Z,0.00
2018-11-14T06:45:32.118Z,0.00
2018-11-14T06:48:02.312Z,0.00
2018-11-14T06:50:31.257Z,0.00
2018-11-14T06:53:02.054Z,0.00
2018-11-14T06:55:31.649Z,0.00
2018-11-14T06:58:00.643Z,0.00
2018-11-14T07:00:31.669Z,0.00
2018-11-14T07:03:02.257Z,0.00
2018-11-14T07:05:32.183Z,0.00
2018-11-14T07:08:00.892Z,0.00
2018-11-14T07:10:31.884Z,0.00
2018-11-14T07:13:05.472Z,0.10
2018-11-14T07:15:35.039Z,0.20
2018-11-14T07:21:01.679Z,0.20
2018-11-14T07:23:30.833Z,0.20
2018-11-14T07:25:59.615Z,0.30
2018-11-14T07:28:28.463Z,0.40
2018-11-14T07:30:57.349Z,0.40
2018-11-14T07:33:26.184Z,0.40
2018-11-14T07:35:55.953Z,0.40
2018-11-14T07:38:37.755Z,0.40
2018-11-14T07:41:08.690Z,0.40
2018-11-14T07:43:40.094Z,0.40
2018-11-14T07:46:09.645Z,0.40
2018-11-14T07:48:39.079Z,0.40
2018-11-14T07:51:08.196Z,0.60
2018-11-14T07:53:37.432Z,0.70
2018-11-14T07:56:06.339Z,0.80
2018-11-14T07:58:35.114Z,0.80
2018-11-14T08:01:04.153Z,0.80
2018-11-14T08:03:33.070Z,0.80
2018-11-14T08:06:01.945Z,1.00
2018-11-14T08:08:31.659Z,1.10
2018-11-14T08:11:01.065Z,1.30
2018-11-14T08:13:34.293Z,1.30
2018-11-14T08:16:03.800Z,1.70
2018-11-14T08:18:33.498Z,2.00
2018-11-14T08:21:03.266Z,1.90
2018-11-14T08:23:32.145Z,2.20
2018-11-14T08:26:01.289Z,2.10
2018-11-14T08:28:30.453Z,2.00
2018-11-14T08:30:59.923Z,2.00
2018-11-14T08:33:28.717Z,2.30
2018-11-14T08:36:04.210Z,2.00
2018-11-14T08:38:33.205Z,2.10
2018-11-14T08:41:03.217Z,2.70
2018-11-14T08:43:32.254Z,2.60
2018-11-14T08:46:01.965Z,2.70
2018-11-14T08:48:30.819Z,3.20
2018-11-14T08:51:01.105Z,3.30
2018-11-14T08:53:30.185Z,3.50
2018-11-14T08:55:59.054Z,3.90
2018-11-14T08:58:28.078Z,4.00
2018-11-14T09:00:57.103Z,3.80
2018-11-14T09:03:25.983Z,3.80
2018-11-14T09:05:55.743Z,4.20
2018-11-14T09:08:24.739Z,4.40
2018-11-14T09:10:53.823Z,4.90
2018-11-14T09:13:22.646Z,5.20
2018-11-14T09:15:51.522Z,4.70
2018-11-14T09:18:20.696Z,4.90
2018-11-14T09:20:49.977Z,4.70
2018-11-14T09:23:19.301Z,5.20
2018-11-14T09:25:48.228Z,5.80
2018-11-14T09:28:17.169Z,5.80
2018-11-14T09:30:46.101Z,6.00
2018-11-14T09:33:15.181Z,6.10
2018-11-14T09:35:44.113Z,7.40
2018-11-14T09:38:13.653Z,8.10
2018-11-14T09:40:50.859Z,8.60
2018-11-14T09:43:19.673Z,8.70
2018-11-14T09:45:49.237Z,9.70
2018-11-14T09:48:18.180Z,9.70
2018-11-14T09:50:47.856Z,10.50
2018-11-14T09:53:16.738Z,10.50
2018-11-14T09:55:45.741Z,10.30
2018-11-14T09:58:17.133Z,10.20
2018-11-14T10:00:46.176Z,9.70
2018-11-14T10:03:17.353Z,9.70
2018-11-14T10:05:46.373Z,10.70
2018-11-14T10:08:16.009Z,11.80
2018-11-14T10:10:45.181Z,13.40
2018-11-14T10:13:14.244Z,12.90
2018-11-14T10:15:43.920Z,11.70
2018-11-14T10:18:12.905Z,10.00
2018-11-14T10:20:49.691Z,9.60
2018-11-14T10:23:18.572Z,10.50
2018-11-14T10:25:48.374Z,11.70
2018-11-14T10:28:17.707Z,11.70
2018-11-14T10:30:46.767Z,12.90
2018-11-14T10:33:15.646Z,12.40
2018-11-14T10:35:44.492Z,11.50
2018-11-14T10:38:19.717Z,10.70
2018-11-14T10:40:48.651Z,10.70
2018-11-14T10:43:18.088Z,11.00
2018-11-14T10:45:48.199Z,11.00
2018-11-14T10:48:17.080Z,10.80
2018-11-14T10:50:45.944Z,10.70
2018-11-14T10:53:14.832Z,9.80
2018-11-14T10:55:43.797Z,9.90
2018-11-14T10:58:14.344Z,10.10
2018-11-14T11:00:52.381Z,10.20
2018-11-14T11:03:26.479Z,10.10
2018-11-14T11:06:00.334Z,9.90
2018-11-14T11:08:34.480Z,9.70
2018-11-14T11:11:08.653Z,9.80
2018-11-14T11:14:12.937Z,9.70
2018-11-14T11:16:49.111Z,9.80
2018-11-14T11:19:22.200Z,9.40
2018-11-14T11:21:56.118Z,9.20
2018-11-14T11:24:25.297Z,9.10
2018-11-14T11:26:54.296Z,9.10
2018-11-14T11:29:23.328Z,9.20
2018-11-14T11:31:52.149Z,9.30
2018-11-14T11:36:54.454Z,9.30
2018-11-14T11:39:23.280Z,9.40
2018-11-14T11:41:52.939Z,9.60
2018-11-14T11:44:21.745Z,10.00
2018-11-14T11:46:50.517Z,10.30
2018-11-14T11:49:19.568Z,10.40
2018-11-14T11:51:48.483Z,10.50
2018-11-14T11:54:17.469Z,10.70
2018-11-14T11:56:46.592Z,11.10
2018-11-14T11:59:15.555Z,11.30
2018-11-14T12:01:44.498Z,11.50
2018-11-14T12:04:14.020Z,11.20
2018-11-14T12:06:43.124Z,11.00
2018-11-14T12:09:12.668Z,10.50
2018-11-14T12:11:41.593Z,10.00
2018-11-14T12:14:11.010Z,9.40
2018-11-14T12:16:40.124Z,8.90
2018-11-14T12:19:09.477Z,8.40
2018-11-14T12:21:38.598Z,8.20
2018-11-14T12:24:07.739Z,8.00
2018-11-14T12:26:36.600Z,7.80
2018-11-14T12:29:05.678Z,7.80
2018-11-14T12:31:35.251Z,7.70
2018-11-14T12:34:06.254Z,7.70
2018-11-14T12:36:35.749Z,7.60
2018-11-14T12:39:06.493Z,7.60
2018-11-14T12:41:35.379Z,7.60
2018-11-14T12:44:04.529Z,7.70
2018-11-14T12:46:33.689Z,7.70
2018-11-14T12:49:02.835Z,7.80
2018-11-14T12:51:32.071Z,7.80
2018-11-14T12:54:01.012Z,7.90
2018-11-14T12:56:29.897Z,7.90
2018-11-14T12:58:58.900Z,8.00
2018-11-14T13:01:27.840Z,8.10
2018-11-14T13:03:57.009Z,8.10
2018-11-14T13:06:25.887Z,8.10
2018-11-14T13:08:55.147Z,8.20
2018-11-14T13:11:25.075Z,8.20
2018-11-14T13:13:54.178Z,8.20
2018-11-14T13:16:23.178Z,8.20
2018-11-14T13:18:52.144Z,8.20
2018-11-14T13:21:21.240Z,8.10
2018-11-14T13:23:50.132Z,8.20
2018-11-14T13:26:19.352Z,8.10
2018-11-14T13:28:48.546Z,8.10
2018-11-14T13:31:17.545Z,8.20
2018-11-14T13:33:46.909Z,8.20
2018-11-14T13:36:15.830Z,8.20
2018-11-14T13:38:44.774Z,8.20
2018-11-14T13:41:13.897Z,8.30
2018-11-14T13:43:44.830Z,8.30
2018-11-14T13:46:14.090Z,8.30
2018-11-14T13:48:43.550Z,8.30
2018-11-14T13:51:12.718Z,8.30
2018-11-14T13:53:41.643Z,8.40
2018-11-14T13:56:10.990Z,8.40
2018-11-14T13:58:39.842Z,8.50
2018-11-14T14:01:08.670Z,8.50
2018-11-14T14:03:37.584Z,8.50
2018-11-14T14:06:07.053Z,8.40
2018-11-14T14:08:48.653Z,8.40
2018-11-14T14:11:18.152Z,8.40
2018-11-14T14:13:52.211Z,8.40
2018-11-14T14:16:21.372Z,8.40
2018-11-14T14:18:50.601Z,8.40
2018-11-14T14:21:23.885Z,8.50
2018-11-14T14:23:52.825Z,8.50
2018-11-14T14:26:21.865Z,8.50
2018-11-14T14:28:52.948Z,8.50
2018-11-14T14:31:24.681Z,8.50
2018-11-14T14:33:55.709Z,8.70
2018-11-14T14:36:25.974Z,8.90
2018-11-14T14:38:55.021Z,9.40
2018-11-14T14:41:24.871Z,10.30
2018-11-14T14:43:55.024Z,11.20
2018-11-14T14:46:24.984Z,12.10
2018-11-14T14:48:53.975Z,12.50
2018-11-14T14:51:23.722Z,12.40
2018-11-14T14:53:55.361Z,12.00
2018-11-14T14:56:25.246Z,11.40
2018-11-14T14:58:59.699Z,10.70
2018-11-14T15:01:28.765Z,10.20
2018-11-14T15:03:58.301Z,9.70
2018-11-14T15:06:29.629Z,9.10
2018-11-14T15:08:58.510Z,8.70
2018-11-14T15:11:27.705Z,8.30
2018-11-14T15:14:13.660Z,8.00
2018-11-14T15:16:42.749Z,7.70
2018-11-14T15:22:06.480Z,7.30
2018-11-14T15:27:29.481Z,6.80
2018-11-14T15:30:09.063Z,6.50
2018-11-14T15:32:38.593Z,6.40
2018-11-14T15:35:09.880Z,6.20
2018-11-14T15:37:38.978Z,6.10
2018-11-14T15:40:09.786Z,6.00
2018-11-14T15:42:39.292Z,6.00
2018-11-14T15:45:11.338Z,5.90
2018-11-14T15:47:40.285Z,5.70
2018-11-14T15:50:18.740Z,5.70
2018-11-14T15:52:48.507Z,5.60
2018-11-14T15:55:18.512Z,5.50
2018-11-14T15:57:47.441Z,5.40
2018-11-14T16:00:19.274Z,5.30
2018-11-14T16:02:48.281Z,5.30
2018-11-14T16:05:20.219Z,5.20
2018-11-14T16:07:50.284Z,5.10
2018-11-14T16:10:20.482Z,5.00
2018-11-14T16:12:49.606Z,5.00
2018-11-14T16:15:20.075Z,5.10
2018-11-14T16:17:49.679Z,5.10
2018-11-14T16:20:20.743Z,5.00
2018-11-14T16:22:49.733Z,5.00
2018-11-14T16:25:19.820Z,5.00
2018-11-14T16:27:49.673Z,5.00
2018-11-14T16:30:24.979Z,4.80
2018-11-14T16:32:55.438Z,4.80
2018-11-14T16:35:24.443Z,4.90
2018-11-14T16:37:53.574Z,4.90
2018-11-14T16:40:23.874Z,4.80
2018-11-14T16:42:53.946Z,4.90
2018-11-14T16:45:23.287Z,4.90
2018-11-14T16:47:53.333Z,4.80
2018-11-14T16:50:23.061Z,4.80
2018-11-14T16:52:51.941Z,4.60
2018-11-14T16:55:21.752Z,4.50
2018-11-14T16:57:51.526Z,4.30
2018-11-14T17:00:22.787Z,4.40
2018-11-14T17:02:51.826Z,4.30
2018-11-14T17:05:22.465Z,4.30
2018-11-14T17:08:16.682Z,4.10
2018-11-14T17:10:45.803Z,4.00
2018-11-14T17:13:14.854Z,3.90
2018-11-14T17:15:44.028Z,3.90
2018-11-14T17:18:14.094Z,3.90
2018-11-14T17:21:03.199Z,3.80
2018-11-14T17:23:32.277Z,3.90
2018-11-14T17:26:01.143Z,3.90
2018-11-14T17:28:30.080Z,3.80
2018-11-14T17:30:59.032Z,3.70
2018-11-14T17:33:28.217Z,3.60
2018-11-14T17:35:57.451Z,3.60
2018-11-14T17:38:26.462Z,3.60
2018-11-14T17:41:03.707Z,3.40
2018-11-14T17:43:38.543Z,3.40
2018-11-14T17:46:07.621Z,3.30
2018-11-14T17:48:36.610Z,3.50
2018-11-14T17:51:12.494Z,3.60
2018-11-14T17:53:41.543Z,3.60
2018-11-14T17:56:10.679Z,3.50
2018-11-14T17:58:39.697Z,3.30
2018-11-14T18:01:08.886Z,3.40
2018-11-14T18:03:38.452Z,3.40
2018-11-14T18:06:10.586Z,3.40
2018-11-14T18:08:39.431Z,3.30
2018-11-14T18:11:08.355Z,3.30
2018-11-14T18:13:38.348Z,3.10
2018-11-14T18:16:07.939Z,3.10
2018-11-14T18:18:36.932Z,3.00
2018-11-14T18:21:06.110Z,3.00
2018-11-14T18:23:35.072Z,2.90
2018-11-14T18:26:04.777Z,2.80
2018-11-14T18:28:36.263Z,2.80
2018-11-14T18:31:12.437Z,2.70
2018-11-14T18:33:41.793Z,2.70
2018-11-14T18:36:11.092Z,2.80
2018-11-14T18:38:40.205Z,2.80
2018-11-14T18:41:09.116Z,2.70
2018-11-14T18:43:38.025Z,2.80
2018-11-14T18:46:07.144Z,2.80
2018-11-14T18:48:37.157Z,2.70
2018-11-14T18:51:06.311Z,2.70
2018-11-14T18:53:37.577Z,2.70
2018-11-14T18:56:07.441Z,2.60
2018-11-14T19:01:34.532Z,2.70
2018-11-14T19:04:03.613Z,2.70
2018-11-14T19:06:32.536Z,2.60
2018-11-14T19:09:01.416Z,2.50
2018-11-14T19:11:30.373Z,2.50
2018-11-14T19:13:59.405Z,2.50
2018-11-14T19:16:28.374Z,2.50
2018-11-14T19:18:58.125Z,2.50
2018-11-14T19:21:27.008Z,2.50
2018-11-14T19:23:56.538Z,2.70
2018-11-14T19:26:25.423Z,2.70
2018-11-14T19:28:56.487Z,2.60
2018-11-14T19:31:25.986Z,2.60
2018-11-14T19:33:54.885Z,2.50
2018-11-14T19:36:23.730Z,2.30
2018-11-14T19:38:52.751Z,2.30
2018-11-14T19:41:22.156Z,2.20
2018-11-14T19:43:51.193Z,2.10
2018-11-14T19:46:20.094Z,2.00
2018-11-14T19:48:49.017Z,1.90
2018-11-14T19:51:18.879Z,1.80
2018-11-14T19:53:47.944Z,1.80
2018-11-14T19:56:17.565Z,1.80
2018-11-14T19:58:48.282Z,1.80
2018-11-14T20:01:18.149Z,1.80
2018-11-14T20:03:47.618Z,1.90
2018-11-14T20:06:16.567Z,2.00
2018-11-14T20:08:45.531Z,1.90
2018-11-14T20:11:14.415Z,1.90
2018-11-14T20:13:43.906Z,1.90
2018-11-14T20:16:13.035Z,1.90
2018-11-14T20:18:41.920Z,1.80
2018-11-14T20:21:11.415Z,1.90
2018-11-14T20:23:40.303Z,1.90
2018-11-14T20:26:09.208Z,1.80
2018-11-14T20:28:38.069Z,1.60
2018-11-14T20:31:07.580Z,1.70
2018-11-14T20:33:36.642Z,1.70
2018-11-14T20:36:05.769Z,1.70
2018-11-14T20:38:36.776Z,1.60
2018-11-14T20:41:06.055Z,1.60
2018-11-14T20:43:34.918Z,1.60
2018-11-14T20:46:03.814Z,1.60
2018-11-14T20:48:32.692Z,1.60
2018-11-14T20:51:01.651Z,1.60
2018-11-14T20:53:31.501Z,1.60
2018-11-14T20:56:00.634Z,1.60
2018-11-14T20:58:29.550Z,1.70
2018-11-14T21:00:58.604Z,1.60
2018-11-14T21:03:27.537Z,1.70
2018-11-14T21:05:56.660Z,1.70
2018-11-14T21:08:25.867Z,1.60
2018-11-14T21:10:56.166Z,1.60
2018-11-14T21:13:25.469Z,1.60
2018-11-14T21:15:55.552Z,1.50
2018-11-14T21:18:25.657Z,1.40
2018-11-14T21:20:56.150Z,1.30
2018-11-14T21:23:25.251Z,1.30
2018-11-14T21:25:54.933Z,1.20
2018-11-14T21:28:24.109Z,1.10
2018-11-14T21:30:54.316Z,1.10
2018-11-14T21:33:25.805Z,1.00
2018-11-14T21:35:55.724Z,1.00
2018-11-14T21:38:25.441Z,0.90
2018-11-14T21:40:54.509Z,1.00
2018-11-14T21:43:23.456Z,0.90
2018-11-14T21:45:54.083Z,0.90
2018-11-14T21:48:23.215Z,0.80
2018-11-14T21:50:52.241Z,0.70
2018-11-14T21:53:21.342Z,0.80
2018-11-14T21:55:50.093Z,0.80
2018-11-14T21:58:19.158Z,0.90
2018-11-14T22:00:48.031Z,1.00
2018-11-14T22:03:17.013Z,1.00
2018-11-14T22:05:46.540Z,1.00
2018-11-14T22:08:16.855Z,1.10
2018-11-14T22:10:45.793Z,1.10
2018-11-14T22:13:14.577Z,1.00
2018-11-14T22:15:43.672Z,0.90
2018-11-14T22:18:12.906Z,0.80
2018-11-14T22:20:41.856Z,0.90
2018-11-14T22:23:11.254Z,0.90
2018-11-14T22:25:40.331Z,0.90
2018-11-14T22:28:09.486Z,0.90
2018-11-14T22:30:39.018Z,0.80
2018-11-14T22:33:08.205Z,0.80
2018-11-14T22:35:37.246Z,0.70
2018-11-14T22:38:08.813Z,0.70
2018-11-14T22:40:39.823Z,0.70
2018-11-14T22:43:08.820Z,0.70
2018-11-14T22:45:37.972Z,0.70
2018-11-14T22:48:07.492Z,0.70
2018-11-14T22:50:36.642Z,0.70
2018-11-14T22:53:06.447Z,0.60
2018-11-14T22:55:35.295Z,0.60
2018-11-14T22:58:04.253Z,0.50
2018-11-14T23:00:37.394Z,0.50
2018-11-14T23:03:07.281Z,0.40
2018-11-14T23:05:36.176Z,0.40
2018-11-14T23:08:05.249Z,0.40
2018-11-14T23:10:34.272Z,0.30
2018-11-14T23:13:03.660Z,0.20
2018-11-14T23:15:32.623Z,0.20
2018-11-14T23:18:02.385Z,0.20
2018-11-14T23:20:31.280Z,0.20
2018-11-14T23:23:00.225Z,0.30
2018-11-14T23:25:30.001Z,0.30
2018-11-14T23:27:59.032Z,0.30
2018-11-14T23:30:28.172Z,0.30
2018-11-14T23:32:57.926Z,0.50
2018-11-14T23:35:29.950Z,0.40
2018-11-14T23:38:07.213Z,0.40
2018-11-14T23:40:36.131Z,0.40
2018-11-14T23:43:06.073Z,0.40
2018-11-14T23:45:35.293Z,0.30
2018-11-14T23:48:06.097Z,0.30
2018-11-14T23:50:35.569Z,0.20
2018-11-14T23:53:05.961Z,0.10
2018-11-14T23:55:34.957Z,0.10
2018-11-14T23:58:04.928Z,0.10
